sensor_id;sensor_type;location;lat;lon;timestamp;P1;durP1;ratioP1;P2;durP2;ratioP2
75626;SDS011;67372;49.404;11.034;2023-11-19T00:00:36;4.20;;;2.35;;
75626;SDS011;67372;49.404;11.034;2023-11-19T00:03:02;4.80;;;2.40;;
75626;SDS011;67372;49.404;11.034;2023-11-19T00:05:29;4.03;;;2.60;;
75626;SDS011;67372;49.404;11.034;2023-11-19T00:07:55;5.55;;;2.45;;
75626;SDS011;67372;49.404;11.034;2023-11-19T00:10:22;4.40;;;2.45;;
75626;SDS011;67372;49.404;11.034;2023-11-19T00:12:48;4.55;;;2.72;;
75626;SDS011;67372;49.404;11.034;2023-11-19T00:15:16;4.90;;;2.90;;
75626;SDS011;67372;49.404;11.034;2023-11-19T00:17:47;3.92;;;2.28;;
75626;SDS011;67372;49.404;11.034;2023-11-19T00:20:18;3.95;;;2.50;;
75626;SDS011;67372;49.404;11.034;2023-11-19T00:22:46;5.03;;;2.17;;
75626;SDS011;67372;49.404;11.034;2023-11-19T00:25:16;4.40;;;2.58;;
75626;SDS011;67372;49.404;11.034;2023-11-19T00:27:43;5.63;;;2.67;;
75626;SDS011;67372;49.404;11.034;2023-11-19T00:30:10;4.32;;;2.35;;
75626;SDS011;67372;49.404;11.034;2023-11-19T00:32:36;5.88;;;2.60;;
75626;SDS011;67372;49.404;11.034;2023-11-19T00:35:03;4.43;;;2.50;;
75626;SDS011;67372;49.404;11.034;2023-11-19T00:37:30;5.18;;;2.42;;
75626;SDS011;67372;49.404;11.034;2023-11-19T00:39:57;4.53;;;2.67;;
75626;SDS011;67372;49.404;11.034;2023-11-19T00:42:23;4.65;;;2.80;;
75626;SDS011;67372;49.404;11.034;2023-11-19T00:44:50;3.72;;;2.13;;
75626;SDS011;67372;49.404;11.034;2023-11-19T00:47:17;5.10;;;2.60;;
75626;SDS011;67372;49.404;11.034;2023-11-19T00:49:44;3.92;;;2.70;;
75626;SDS011;67372;49.404;11.034;2023-11-19T00:52:10;3.88;;;2.38;;
75626;SDS011;67372;49.404;11.034;2023-11-19T00:54:37;4.30;;;2.42;;
75626;SDS011;67372;49.404;11.034;2023-11-19T00:57:03;4.70;;;2.70;;
75626;SDS011;67372;49.404;11.034;2023-11-19T00:59:29;4.32;;;2.58;;
75626;SDS011;67372;49.404;11.034;2023-11-19T01:01:56;3.50;;;2.13;;
75626;SDS011;67372;49.404;11.034;2023-11-19T01:04:22;3.72;;;2.15;;
75626;SDS011;67372;49.404;11.034;2023-11-19T01:06:49;3.80;;;2.05;;
75626;SDS011;67372;49.404;11.034;2023-11-19T01:09:16;5.18;;;2.25;;
75626;SDS011;67372;49.404;11.034;2023-11-19T01:11:42;4.72;;;2.50;;
75626;SDS011;67372;49.404;11.034;2023-11-19T01:14:08;4.10;;;2.47;;
75626;SDS011;67372;49.404;11.034;2023-11-19T01:16:35;5.65;;;2.58;;
75626;SDS011;67372;49.404;11.034;2023-11-19T01:19:01;3.88;;;2.17;;
75626;SDS011;67372;49.404;11.034;2023-11-19T01:21:42;4.28;;;2.40;;
75626;SDS011;67372;49.404;11.034;2023-11-19T01:24:08;3.50;;;2.30;;
75626;SDS011;67372;49.404;11.034;2023-11-19T01:26:35;4.97;;;2.40;;
75626;SDS011;67372;49.404;11.034;2023-11-19T01:29:01;4.75;;;2.60;;
75626;SDS011;67372;49.404;11.034;2023-11-19T01:31:28;4.22;;;2.35;;
75626;SDS011;67372;49.404;11.034;2023-11-19T01:33:54;4.22;;;2.40;;
75626;SDS011;67372;49.404;11.034;2023-11-19T01:36:21;4.10;;;2.28;;
75626;SDS011;67372;49.404;11.034;2023-11-19T01:38:47;3.90;;;2.20;;
75626;SDS011;67372;49.404;11.034;2023-11-19T01:41:13;4.25;;;2.17;;
75626;SDS011;67372;49.404;11.034;2023-11-19T01:43:40;3.55;;;2.33;;
75626;SDS011;67372;49.404;11.034;2023-11-19T01:46:06;4.75;;;2.67;;
75626;SDS011;67372;49.404;11.034;2023-11-19T01:48:34;4.03;;;2.40;;
75626;SDS011;67372;49.404;11.034;2023-11-19T01:51:00;4.13;;;2.30;;
75626;SDS011;67372;49.404;11.034;2023-11-19T01:55:55;5.05;;;2.22;;
75626;SDS011;67372;49.404;11.034;2023-11-19T01:58:23;3.85;;;2.05;;
75626;SDS011;67372;49.404;11.034;2023-11-19T02:00:50;3.80;;;2.47;;
75626;SDS011;67372;49.404;11.034;2023-11-19T02:03:17;3.90;;;2.47;;
75626;SDS011;67372;49.404;11.034;2023-11-19T02:05:45;4.18;;;2.45;;
75626;SDS011;67372;49.404;11.034;2023-11-19T02:08:15;4.13;;;2.50;;
75626;SDS011;67372;49.404;11.034;2023-11-19T02:10:41;4.68;;;2.80;;
75626;SDS011;67372;49.404;11.034;2023-11-19T02:13:08;3.63;;;2.25;;
75626;SDS011;67372;49.404;11.034;2023-11-19T02:15:34;4.18;;;2.80;;
75626;SDS011;67372;49.404;11.034;2023-11-19T02:20:53;3.38;;;2.13;;
75626;SDS011;67372;49.404;11.034;2023-11-19T02:23:20;5.07;;;2.58;;
75626;SDS011;67372;49.404;11.034;2023-11-19T02:25:47;4.57;;;2.47;;
75626;SDS011;67372;49.404;11.034;2023-11-19T02:28:25;4.90;;;2.40;;
75626;SDS011;67372;49.404;11.034;2023-11-19T02:30:52;5.53;;;2.80;;
75626;SDS011;67372;49.404;11.034;2023-11-19T02:33:18;5.85;;;2.92;;
75626;SDS011;67372;49.404;11.034;2023-11-19T02:35:45;5.03;;;2.67;;
75626;SDS011;67372;49.404;11.034;2023-11-19T02:38:11;7.00;;;3.00;;
75626;SDS011;67372;49.404;11.034;2023-11-19T02:40:38;4.95;;;2.90;;
75626;SDS011;67372;49.404;11.034;2023-11-19T02:43:04;5.30;;;3.20;;
75626;SDS011;67372;49.404;11.034;2023-11-19T02:45:30;5.18;;;3.05;;
75626;SDS011;67372;49.404;11.034;2023-11-19T02:47:57;6.28;;;3.03;;
75626;SDS011;67372;49.404;11.034;2023-11-19T02:50:24;5.68;;;3.28;;
75626;SDS011;67372;49.404;11.034;2023-11-19T02:52:51;7.03;;;3.20;;
75626;SDS011;67372;49.404;11.034;2023-11-19T02:55:19;6.43;;;3.10;;
75626;SDS011;67372;49.404;11.034;2023-11-19T02:57:46;5.65;;;3.47;;
75626;SDS011;67372;49.404;11.034;2023-11-19T03:00:13;5.78;;;2.78;;
75626;SDS011;67372;49.404;11.034;2023-11-19T03:02:41;6.45;;;3.00;;
75626;SDS011;67372;49.404;11.034;2023-11-19T03:05:07;6.00;;;3.05;;
75626;SDS011;67372;49.404;11.034;2023-11-19T03:07:34;6.28;;;2.95;;
75626;SDS011;67372;49.404;11.034;2023-11-19T03:10:00;5.72;;;3.00;;
75626;SDS011;67372;49.404;11.034;2023-11-19T03:12:26;6.25;;;3.22;;
75626;SDS011;67372;49.404;11.034;2023-11-19T03:14:54;6.70;;;3.30;;
75626;SDS011;67372;49.404;11.034;2023-11-19T03:17:20;5.75;;;3.17;;
75626;SDS011;67372;49.404;11.034;2023-11-19T03:19:46;6.63;;;3.10;;
75626;SDS011;67372;49.404;11.034;2023-11-19T03:22:13;6.10;;;2.92;;
75626;SDS011;67372;49.404;11.034;2023-11-19T03:24:39;5.72;;;3.13;;
75626;SDS011;67372;49.404;11.034;2023-11-19T03:27:06;6.43;;;2.88;;
75626;SDS011;67372;49.404;11.034;2023-11-19T03:29:32;6.35;;;3.30;;
75626;SDS011;67372;49.404;11.034;2023-11-19T03:31:58;6.07;;;3.33;;
75626;SDS011;67372;49.404;11.034;2023-11-19T03:34:25;6.82;;;3.40;;
75626;SDS011;67372;49.404;11.034;2023-11-19T03:36:51;5.50;;;3.10;;
75626;SDS011;67372;49.404;11.034;2023-11-19T03:39:18;6.40;;;3.42;;
75626;SDS011;67372;49.404;11.034;2023-11-19T03:41:47;5.95;;;3.45;;
75626;SDS011;67372;49.404;11.034;2023-11-19T03:44:13;6.18;;;3.05;;
75626;SDS011;67372;49.404;11.034;2023-11-19T03:46:40;6.88;;;3.40;;
75626;SDS011;67372;49.404;11.034;2023-11-19T03:49:06;8.32;;;3.72;;
75626;SDS011;67372;49.404;11.034;2023-11-19T03:51:32;6.70;;;3.25;;
75626;SDS011;67372;49.404;11.034;2023-11-19T03:53:59;5.25;;;3.03;;
75626;SDS011;67372;49.404;11.034;2023-11-19T03:56:25;7.22;;;3.35;;
75626;SDS011;67372;49.404;11.034;2023-11-19T03:58:52;6.55;;;3.60;;
75626;SDS011;67372;49.404;11.034;2023-11-19T04:01:18;7.03;;;3.67;;
75626;SDS011;67372;49.404;11.034;2023-11-19T04:03:45;7.53;;;3.90;;
75626;SDS011;67372;49.404;11.034;2023-11-19T04:06:14;6.75;;;4.07;;
75626;SDS011;67372;49.404;11.034;2023-11-19T04:08:40;8.15;;;3.72;;
75626;SDS011;67372;49.404;11.034;2023-11-19T04:11:07;7.28;;;3.75;;
75626;SDS011;67372;49.404;11.034;2023-11-19T04:13:33;7.32;;;3.85;;
75626;SDS011;67372;49.404;11.034;2023-11-19T04:16:00;8.85;;;4.13;;
75626;SDS011;67372;49.404;11.034;2023-11-19T04:18:26;7.90;;;3.85;;
75626;SDS011;67372;49.404;11.034;2023-11-19T04:20:53;8.60;;;3.67;;
75626;SDS011;67372;49.404;11.034;2023-11-19T04:23:19;8.65;;;4.25;;
75626;SDS011;67372;49.404;11.034;2023-11-19T04:25:46;9.35;;;4.45;;
75626;SDS011;67372;49.404;11.034;2023-11-19T04:28:12;13.70;;;4.60;;
75626;SDS011;67372;49.404;11.034;2023-11-19T04:30:38;8.20;;;3.97;;
75626;SDS011;67372;49.404;11.034;2023-11-19T04:33:05;7.70;;;4.00;;
75626;SDS011;67372;49.404;11.034;2023-11-19T04:35:31;8.45;;;3.78;;
75626;SDS011;67372;49.404;11.034;2023-11-19T04:37:58;9.18;;;4.20;;
75626;SDS011;67372;49.404;11.034;2023-11-19T04:40:24;8.10;;;4.10;;
75626;SDS011;67372;49.404;11.034;2023-11-19T04:42:51;7.72;;;4.13;;
75626;SDS011;67372;49.404;11.034;2023-11-19T04:45:17;7.45;;;4.10;;
75626;SDS011;67372;49.404;11.034;2023-11-19T04:47:44;8.02;;;4.00;;
75626;SDS011;67372;49.404;11.034;2023-11-19T04:50:10;8.57;;;4.20;;
75626;SDS011;67372;49.404;11.034;2023-11-19T04:52:37;7.65;;;3.67;;
75626;SDS011;67372;49.404;11.034;2023-11-19T04:55:04;8.10;;;4.03;;
75626;SDS011;67372;49.404;11.034;2023-11-19T04:57:31;7.55;;;4.20;;
75626;SDS011;67372;49.404;11.034;2023-11-19T04:59:57;5.93;;;3.35;;
75626;SDS011;67372;49.404;11.034;2023-11-19T05:02:24;7.25;;;3.53;;
75626;SDS011;67372;49.404;11.034;2023-11-19T05:04:50;7.53;;;4.03;;
75626;SDS011;67372;49.404;11.034;2023-11-19T05:07:17;9.75;;;4.05;;
75626;SDS011;67372;49.404;11.034;2023-11-19T05:09:43;8.02;;;3.45;;
75626;SDS011;67372;49.404;11.034;2023-11-19T05:12:10;7.65;;;3.92;;
75626;SDS011;67372;49.404;11.034;2023-11-19T05:14:36;7.25;;;3.95;;
75626;SDS011;67372;49.404;11.034;2023-11-19T05:17:02;7.57;;;3.47;;
75626;SDS011;67372;49.404;11.034;2023-11-19T05:19:29;8.63;;;3.78;;
75626;SDS011;67372;49.404;11.034;2023-11-19T05:21:55;8.55;;;3.95;;
75626;SDS011;67372;49.404;11.034;2023-11-19T05:24:22;7.32;;;3.70;;
75626;SDS011;67372;49.404;11.034;2023-11-19T05:26:48;7.82;;;3.58;;
75626;SDS011;67372;49.404;11.034;2023-11-19T05:29:15;6.85;;;3.60;;
75626;SDS011;67372;49.404;11.034;2023-11-19T05:31:42;7.13;;;4.03;;
75626;SDS011;67372;49.404;11.034;2023-11-19T05:34:10;6.85;;;3.80;;
75626;SDS011;67372;49.404;11.034;2023-11-19T05:36:37;7.57;;;4.03;;
75626;SDS011;67372;49.404;11.034;2023-11-19T05:39:03;8.18;;;3.83;;
75626;SDS011;67372;49.404;11.034;2023-11-19T05:41:29;7.03;;;3.85;;
75626;SDS011;67372;49.404;11.034;2023-11-19T05:43:56;7.50;;;3.42;;
75626;SDS011;67372;49.404;11.034;2023-11-19T05:46:22;7.75;;;4.20;;
75626;SDS011;67372;49.404;11.034;2023-11-19T05:48:49;8.23;;;3.38;;
75626;SDS011;67372;49.404;11.034;2023-11-19T05:51:15;6.68;;;3.22;;
75626;SDS011;67372;49.404;11.034;2023-11-19T05:53:42;7.32;;;3.30;;
75626;SDS011;67372;49.404;11.034;2023-11-19T05:56:08;5.00;;;2.95;;
75626;SDS011;67372;49.404;11.034;2023-11-19T05:58:35;6.40;;;3.40;;
75626;SDS011;67372;49.404;11.034;2023-11-19T06:01:01;5.90;;;2.97;;
75626;SDS011;67372;49.404;11.034;2023-11-19T06:03:28;6.40;;;3.38;;
75626;SDS011;67372;49.404;11.034;2023-11-19T06:05:54;4.68;;;3.03;;
75626;SDS011;67372;49.404;11.034;2023-11-19T06:08:21;6.55;;;3.08;;
75626;SDS011;67372;49.404;11.034;2023-11-19T06:10:47;6.82;;;3.40;;
75626;SDS011;67372;49.404;11.034;2023-11-19T06:13:14;5.75;;;3.08;;
75626;SDS011;67372;49.404;11.034;2023-11-19T06:15:41;5.03;;;2.90;;
75626;SDS011;67372;49.404;11.034;2023-11-19T06:18:08;6.30;;;3.28;;
75626;SDS011;67372;49.404;11.034;2023-11-19T06:20:35;8.38;;;3.90;;
75626;SDS011;67372;49.404;11.034;2023-11-19T06:23:04;7.65;;;4.00;;
75626;SDS011;67372;49.404;11.034;2023-11-19T06:25:30;7.40;;;4.13;;
75626;SDS011;67372;49.404;11.034;2023-11-19T06:27:57;7.30;;;3.70;;
75626;SDS011;67372;49.404;11.034;2023-11-19T06:30:23;6.15;;;3.25;;
75626;SDS011;67372;49.404;11.034;2023-11-19T06:32:49;5.85;;;3.28;;
75626;SDS011;67372;49.404;11.034;2023-11-19T06:35:16;4.93;;;2.83;;
75626;SDS011;67372;49.404;11.034;2023-11-19T06:37:42;5.32;;;2.90;;
75626;SDS011;67372;49.404;11.034;2023-11-19T06:40:09;4.05;;;2.53;;
75626;SDS011;67372;49.404;11.034;2023-11-19T06:42:36;5.55;;;2.60;;
75626;SDS011;67372;49.404;11.034;2023-11-19T06:45:02;4.82;;;2.65;;
75626;SDS011;67372;49.404;11.034;2023-11-19T06:47:29;3.72;;;2.17;;
75626;SDS011;67372;49.404;11.034;2023-11-19T06:49:56;4.75;;;2.00;;
75626;SDS011;67372;49.404;11.034;2023-11-19T06:52:22;3.30;;;1.83;;
75626;SDS011;67372;49.404;11.034;2023-11-19T06:54:48;2.95;;;1.50;;
75626;SDS011;67372;49.404;11.034;2023-11-19T06:57:15;2.78;;;1.75;;
75626;SDS011;67372;49.404;11.034;2023-11-19T06:59:42;2.63;;;1.60;;
75626;SDS011;67372;49.404;11.034;2023-11-19T07:02:08;1.95;;;1.27;;
75626;SDS011;67372;49.404;11.034;2023-11-19T07:04:35;2.28;;;1.20;;
75626;SDS011;67372;49.404;11.034;2023-11-19T07:07:01;2.38;;;1.48;;
75626;SDS011;67372;49.404;11.034;2023-11-19T07:09:28;1.95;;;1.30;;
75626;SDS011;67372;49.404;11.034;2023-11-19T07:11:54;1.85;;;1.25;;
75626;SDS011;67372;49.404;11.034;2023-11-19T07:14:21;1.92;;;1.00;;
75626;SDS011;67372;49.404;11.034;2023-11-19T07:16:47;1.15;;;0.70;;
75626;SDS011;67372;49.404;11.034;2023-11-19T07:19:13;3.28;;;0.80;;
75626;SDS011;67372;49.404;11.034;2023-11-19T07:21:43;1.33;;;0.70;;
75626;SDS011;67372;49.404;11.034;2023-11-19T07:24:09;0.70;;;0.50;;
75626;SDS011;67372;49.404;11.034;2023-11-19T07:26:39;0.68;;;0.60;;
75626;SDS011;67372;49.404;11.034;2023-11-19T07:29:09;1.83;;;0.73;;
75626;SDS011;67372;49.404;11.034;2023-11-19T07:31:36;0.80;;;0.60;;
75626;SDS011;67372;49.404;11.034;2023-11-19T07:34:02;0.40;;;0.40;;
75626;SDS011;67372;49.404;11.034;2023-11-19T07:36:28;0.65;;;0.50;;
75626;SDS011;67372;49.404;11.034;2023-11-19T07:38:55;1.30;;;0.40;;
75626;SDS011;67372;49.404;11.034;2023-11-19T07:41:21;1.15;;;0.73;;
75626;SDS011;67372;49.404;11.034;2023-11-19T07:43:48;0.75;;;0.40;;
75626;SDS011;67372;49.404;11.034;2023-11-19T07:46:14;1.15;;;0.40;;
75626;SDS011;67372;49.404;11.034;2023-11-19T07:48:40;0.38;;;0.32;;
75626;SDS011;67372;49.404;11.034;2023-11-19T07:51:07;0.43;;;0.20;;
75626;SDS011;67372;49.404;11.034;2023-11-19T07:53:33;0.30;;;0.20;;
75626;SDS011;67372;49.404;11.034;2023-11-19T07:56:00;0.22;;;0.20;;
75626;SDS011;67372;49.404;11.034;2023-11-19T07:58:27;0.57;;;0.38;;
75626;SDS011;67372;49.404;11.034;2023-11-19T08:00:54;0.65;;;0.38;;
75626;SDS011;67372;49.404;11.034;2023-11-19T08:03:20;0.50;;;0.40;;
75626;SDS011;67372;49.404;11.034;2023-11-19T08:05:47;0.95;;;0.30;;
75626;SDS011;67372;49.404;11.034;2023-11-19T08:08:13;1.15;;;0.50;;
75626;SDS011;67372;49.404;11.034;2023-11-19T08:10:41;0.57;;;0.40;;
75626;SDS011;67372;49.404;11.034;2023-11-19T08:13:07;1.02;;;0.40;;
75626;SDS011;67372;49.404;11.034;2023-11-19T08:15:34;1.65;;;0.50;;
75626;SDS011;67372;49.404;11.034;2023-11-19T08:18:00;0.40;;;0.30;;
75626;SDS011;67372;49.404;11.034;2023-11-19T08:20:27;0.85;;;0.40;;
75626;SDS011;67372;49.404;11.034;2023-11-19T08:22:53;0.80;;;0.40;;
75626;SDS011;67372;49.404;11.034;2023-11-19T08:25:19;1.80;;;0.40;;
75626;SDS011;67372;49.404;11.034;2023-11-19T08:27:46;0.50;;;0.50;;
75626;SDS011;67372;49.404;11.034;2023-11-19T08:30:12;1.23;;;0.57;;
75626;SDS011;67372;49.404;11.034;2023-11-19T08:32:39;0.63;;;0.40;;
75626;SDS011;67372;49.404;11.034;2023-11-19T08:35:06;0.80;;;0.50;;
75626;SDS011;67372;49.404;11.034;2023-11-19T08:37:33;2.90;;;0.73;;
75626;SDS011;67372;49.404;11.034;2023-11-19T08:40:00;0.65;;;0.40;;
75626;SDS011;67372;49.404;11.034;2023-11-19T08:42:26;1.00;;;0.60;;
75626;SDS011;67372;49.404;11.034;2023-11-19T08:44:53;0.50;;;0.40;;
75626;SDS011;67372;49.404;11.034;2023-11-19T08:47:19;0.55;;;0.40;;
75626;SDS011;67372;49.404;11.034;2023-11-19T08:49:46;0.50;;;0.50;;
75626;SDS011;67372;49.404;11.034;2023-11-19T08:52:28;1.00;;;0.47;;
75626;SDS011;67372;49.404;11.034;2023-11-19T08:54:57;0.93;;;0.52;;
75626;SDS011;67372;49.404;11.034;2023-11-19T08:57:23;1.35;;;0.70;;
75626;SDS011;67372;49.404;11.034;2023-11-19T08:59:50;0.70;;;0.50;;
75626;SDS011;67372;49.404;11.034;2023-11-19T09:02:16;0.88;;;0.70;;
75626;SDS011;67372;49.404;11.034;2023-11-19T09:04:43;1.33;;;0.75;;
75626;SDS011;67372;49.404;11.034;2023-11-19T09:07:09;7.50;;;0.80;;
75626;SDS011;67372;49.404;11.034;2023-11-19T09:09:36;0.60;;;0.50;;
75626;SDS011;67372;49.404;11.034;2023-11-19T09:12:02;0.82;;;0.50;;
75626;SDS011;67372;49.404;11.034;2023-11-19T09:14:29;2.85;;;0.60;;
75626;SDS011;67372;49.404;11.034;2023-11-19T09:16:56;1.10;;;0.80;;
75626;SDS011;67372;49.404;11.034;2023-11-19T09:19:23;2.03;;;0.80;;
75626;SDS011;67372;49.404;11.034;2023-11-19T09:21:50;1.23;;;0.60;;
75626;SDS011;67372;49.404;11.034;2023-11-19T09:24:16;1.27;;;0.50;;
75626;SDS011;67372;49.404;11.034;2023-11-19T09:26:43;0.85;;;0.50;;
75626;SDS011;67372;49.404;11.034;2023-11-19T09:29:09;1.13;;;0.60;;
75626;SDS011;67372;49.404;11.034;2023-11-19T09:31:37;1.75;;;0.50;;
75626;SDS011;67372;49.404;11.034;2023-11-19T09:34:04;1.33;;;0.70;;
75626;SDS011;67372;49.404;11.034;2023-11-19T09:36:31;0.50;;;0.50;;
75626;SDS011;67372;49.404;11.034;2023-11-19T09:38:57;0.93;;;0.68;;
75626;SDS011;67372;49.404;11.034;2023-11-19T09:41:24;1.75;;;0.90;;
75626;SDS011;67372;49.404;11.034;2023-11-19T09:43:50;4.00;;;0.82;;
75626;SDS011;67372;49.404;11.034;2023-11-19T09:46:17;1.45;;;0.50;;
75626;SDS011;67372;49.404;11.034;2023-11-19T09:48:45;0.80;;;0.50;;
75626;SDS011;67372;49.404;11.034;2023-11-19T09:51:11;0.55;;;0.50;;
75626;SDS011;67372;49.404;11.034;2023-11-19T09:53:38;1.40;;;0.60;;
75626;SDS011;67372;49.404;11.034;2023-11-19T09:56:05;1.83;;;0.63;;
75626;SDS011;67372;49.404;11.034;2023-11-19T09:58:32;0.90;;;0.60;;
75626;SDS011;67372;49.404;11.034;2023-11-19T10:01:00;1.95;;;1.27;;
75626;SDS011;67372;49.404;11.034;2023-11-19T10:03:47;2.20;;;1.10;;
75626;SDS011;67372;49.404;11.034;2023-11-19T10:06:14;1.15;;;0.55;;
75626;SDS011;67372;49.404;11.034;2023-11-19T10:08:41;0.90;;;0.70;;
75626;SDS011;67372;49.404;11.034;2023-11-19T10:11:08;2.22;;;0.55;;
75626;SDS011;67372;49.404;11.034;2023-11-19T10:13:35;0.80;;;0.60;;
75626;SDS011;67372;49.404;11.034;2023-11-19T10:16:03;1.20;;;0.50;;
75626;SDS011;67372;49.404;11.034;2023-11-19T10:18:42;1.10;;;0.60;;
75626;SDS011;67372;49.404;11.034;2023-11-19T10:21:18;0.73;;;0.50;;
75626;SDS011;67372;49.404;11.034;2023-11-19T10:26:19;2.45;;;0.60;;
75626;SDS011;67372;49.404;11.034;2023-11-19T10:28:46;1.83;;;0.68;;
75626;SDS011;67372;49.404;11.034;2023-11-19T10:31:13;1.52;;;0.82;;
75626;SDS011;67372;49.404;11.034;2023-11-19T10:33:44;1.52;;;0.57;;
75626;SDS011;67372;49.404;11.034;2023-11-19T10:36:11;0.90;;;0.40;;
75626;SDS011;67372;49.404;11.034;2023-11-19T10:38:38;1.52;;;0.40;;
75626;SDS011;67372;49.404;11.034;2023-11-19T10:41:05;0.50;;;0.40;;
75626;SDS011;67372;49.404;11.034;2023-11-19T10:43:42;1.85;;;0.57;;
75626;SDS011;67372;49.404;11.034;2023-11-19T10:46:13;1.05;;;0.40;;
75626;SDS011;67372;49.404;11.034;2023-11-19T10:48:40;0.40;;;0.40;;
75626;SDS011;67372;49.404;11.034;2023-11-19T10:51:07;0.57;;;0.50;;
75626;SDS011;67372;49.404;11.034;2023-11-19T10:53:35;1.75;;;0.60;;
75626;SDS011;67372;49.404;11.034;2023-11-19T10:56:11;1.20;;;0.50;;
75626;SDS011;67372;49.404;11.034;2023-11-19T10:58:38;1.35;;;0.63;;
75626;SDS011;67372;49.404;11.034;2023-11-19T11:01:13;1.00;;;0.45;;
75626;SDS011;67372;49.404;11.034;2023-11-19T11:03:46;1.05;;;0.57;;
75626;SDS011;67372;49.404;11.034;2023-11-19T11:06:13;1.10;;;0.52;;
75626;SDS011;67372;49.404;11.034;2023-11-19T11:08:40;1.20;;;0.50;;
75626;SDS011;67372;49.404;11.034;2023-11-19T11:11:07;1.75;;;0.60;;
75626;SDS011;67372;49.404;11.034;2023-11-19T11:13:34;0.70;;;0.50;;
75626;SDS011;67372;49.404;11.034;2023-11-19T11:16:03;2.72;;;0.50;;
75626;SDS011;67372;49.404;11.034;2023-11-19T11:18:31;3.53;;;1.85;;
75626;SDS011;67372;49.404;11.034;2023-11-19T11:21:02;0.82;;;0.50;;
75626;SDS011;67372;49.404;11.034;2023-11-19T11:23:37;1.15;;;0.50;;
75626;SDS011;67372;49.404;11.034;2023-11-19T11:26:26;0.40;;;0.40;;
75626;SDS011;67372;49.404;11.034;2023-11-19T11:29:14;0.90;;;0.50;;
75626;SDS011;67372;49.404;11.034;2023-11-19T11:31:56;0.80;;;0.50;;
75626;SDS011;67372;49.404;11.034;2023-11-19T11:34:43;0.77;;;0.50;;
75626;SDS011;67372;49.404;11.034;2023-11-19T11:37:26;1.58;;;0.65;;
75626;SDS011;67372;49.404;11.034;2023-11-19T11:39:56;3.50;;;0.68;;
75626;SDS011;67372;49.404;11.034;2023-11-19T11:45:00;1.90;;;0.70;;
75626;SDS011;67372;49.404;11.034;2023-11-19T11:50:09;1.27;;;0.70;;
75626;SDS011;67372;49.404;11.034;2023-11-19T11:55:24;1.10;;;0.80;;
75626;SDS011;67372;49.404;11.034;2023-11-19T12:05:26;1.67;;;0.60;;
75626;SDS011;67372;49.404;11.034;2023-11-19T12:10:30;1.38;;;0.80;;
75626;SDS011;67372;49.404;11.034;2023-11-19T12:12:58;3.22;;;0.82;;
75626;SDS011;67372;49.404;11.034;2023-11-19T12:15:27;2.47;;;0.80;;
75626;SDS011;67372;49.404;11.034;2023-11-19T12:17:54;2.75;;;0.90;;
75626;SDS011;67372;49.404;11.034;2023-11-19T12:20:25;1.70;;;0.90;;
75626;SDS011;67372;49.404;11.034;2023-11-19T12:22:55;2.97;;;1.20;;
75626;SDS011;67372;49.404;11.034;2023-11-19T12:25:21;1.83;;;1.00;;
75626;SDS011;67372;49.404;11.034;2023-11-19T12:27:49;0.93;;;0.55;;
75626;SDS011;67372;49.404;11.034;2023-11-19T12:30:17;2.55;;;0.80;;
75626;SDS011;67372;49.404;11.034;2023-11-19T12:32:47;1.25;;;0.70;;
75626;SDS011;67372;49.404;11.034;2023-11-19T12:35:13;2.05;;;1.00;;
75626;SDS011;67372;49.404;11.034;2023-11-19T12:37:43;1.80;;;0.60;;
75626;SDS011;67372;49.404;11.034;2023-11-19T12:40:11;2.22;;;0.90;;
75626;SDS011;67372;49.404;11.034;2023-11-19T12:42:48;2.97;;;0.90;;
75626;SDS011;67372;49.404;11.034;2023-11-19T12:45:15;1.75;;;0.80;;
75626;SDS011;67372;49.404;11.034;2023-11-19T12:47:45;1.13;;;0.73;;
75626;SDS011;67372;49.404;11.034;2023-11-19T12:50:12;1.95;;;0.70;;
75626;SDS011;67372;49.404;11.034;2023-11-19T12:52:38;1.85;;;0.70;;
75626;SDS011;67372;49.404;11.034;2023-11-19T12:55:05;1.83;;;0.60;;
75626;SDS011;67372;49.404;11.034;2023-11-19T12:57:53;1.30;;;0.60;;
75626;SDS011;67372;49.404;11.034;2023-11-19T13:00:22;2.15;;;0.80;;
75626;SDS011;67372;49.404;11.034;2023-11-19T13:02:54;1.25;;;0.60;;
75626;SDS011;67372;49.404;11.034;2023-11-19T13:05:22;0.75;;;0.60;;
75626;SDS011;67372;49.404;11.034;2023-11-19T13:08:00;2.70;;;0.70;;
75626;SDS011;67372;49.404;11.034;2023-11-19T13:10:33;1.67;;;0.70;;
75626;SDS011;67372;49.404;11.034;2023-11-19T13:13:15;1.40;;;0.70;;
75626;SDS011;67372;49.404;11.034;2023-11-19T13:15:42;1.20;;;0.70;;
75626;SDS011;67372;49.404;11.034;2023-11-19T13:18:09;1.00;;;0.60;;
75626;SDS011;67372;49.404;11.034;2023-11-19T13:20:35;2.33;;;0.80;;
75626;SDS011;67372;49.404;11.034;2023-11-19T13:23:02;1.55;;;0.70;;
75626;SDS011;67372;49.404;11.034;2023-11-19T13:25:30;1.75;;;0.70;;
75626;SDS011;67372;49.404;11.034;2023-11-19T13:27:58;1.10;;;0.75;;
75626;SDS011;67372;49.404;11.034;2023-11-19T13:30:25;2.60;;;0.77;;
75626;SDS011;67372;49.404;11.034;2023-11-19T13:32:53;1.88;;;0.73;;
75626;SDS011;67372;49.404;11.034;2023-11-19T13:35:20;1.67;;;0.88;;
75626;SDS011;67372;49.404;11.034;2023-11-19T13:37:47;0.82;;;0.60;;
75626;SDS011;67372;49.404;11.034;2023-11-19T13:40:13;1.50;;;0.77;;
75626;SDS011;67372;49.404;11.034;2023-11-19T13:42:40;1.38;;;0.70;;
75626;SDS011;67372;49.404;11.034;2023-11-19T13:45:10;1.65;;;0.60;;
75626;SDS011;67372;49.404;11.034;2023-11-19T13:47:41;1.77;;;0.85;;
75626;SDS011;67372;49.404;11.034;2023-11-19T13:50:09;1.70;;;0.60;;
75626;SDS011;67372;49.404;11.034;2023-11-19T13:52:37;1.10;;;0.60;;
75626;SDS011;67372;49.404;11.034;2023-11-19T13:55:08;1.15;;;0.60;;
75626;SDS011;67372;49.404;11.034;2023-11-19T13:57:36;1.25;;;0.60;;
75626;SDS011;67372;49.404;11.034;2023-11-19T14:00:04;3.33;;;0.70;;
75626;SDS011;67372;49.404;11.034;2023-11-19T14:02:33;1.25;;;0.70;;
75626;SDS011;67372;49.404;11.034;2023-11-19T14:05:00;1.23;;;0.50;;
75626;SDS011;67372;49.404;11.034;2023-11-19T14:07:27;1.30;;;0.50;;
75626;SDS011;67372;49.404;11.034;2023-11-19T14:09:53;1.42;;;0.50;;
75626;SDS011;67372;49.404;11.034;2023-11-19T14:12:19;2.95;;;1.05;;
75626;SDS011;67372;49.404;11.034;2023-11-19T14:14:46;0.88;;;0.60;;
75626;SDS011;67372;49.404;11.034;2023-11-19T14:17:12;1.20;;;0.77;;
75626;SDS011;67372;49.404;11.034;2023-11-19T14:19:40;3.22;;;0.82;;
75626;SDS011;67372;49.404;11.034;2023-11-19T14:22:06;1.08;;;0.60;;
75626;SDS011;67372;49.404;11.034;2023-11-19T14:24:33;1.63;;;0.70;;
75626;SDS011;67372;49.404;11.034;2023-11-19T14:26:59;1.80;;;0.60;;
75626;SDS011;67372;49.404;11.034;2023-11-19T14:29:26;1.52;;;0.60;;
75626;SDS011;67372;49.404;11.034;2023-11-19T14:31:53;0.93;;;0.57;;
75626;SDS011;67372;49.404;11.034;2023-11-19T14:34:20;1.17;;;0.60;;
75626;SDS011;67372;49.404;11.034;2023-11-19T14:36:46;1.63;;;0.60;;
75626;SDS011;67372;49.404;11.034;2023-11-19T14:39:13;1.48;;;0.60;;
75626;SDS011;67372;49.404;11.034;2023-11-19T14:41:40;0.77;;;0.60;;
75626;SDS011;67372;49.404;11.034;2023-11-19T14:44:06;2.78;;;0.70;;
75626;SDS011;67372;49.404;11.034;2023-11-19T14:46:33;2.00;;;0.85;;
75626;SDS011;67372;49.404;11.034;2023-11-19T14:49:00;1.33;;;0.57;;
75626;SDS011;67372;49.404;11.034;2023-11-19T14:51:27;1.52;;;0.80;;
75626;SDS011;67372;49.404;11.034;2023-11-19T14:53:53;1.60;;;0.60;;
75626;SDS011;67372;49.404;11.034;2023-11-19T14:56:19;0.80;;;0.50;;
75626;SDS011;67372;49.404;11.034;2023-11-19T14:58:46;1.02;;;0.60;;
75626;SDS011;67372;49.404;11.034;2023-11-19T15:01:12;2.85;;;0.68;;